createdAt,value
2023-10-29T00:02:10.950Z,99405.00
2023-10-29T00:04:37.848Z,99410.00
2023-10-29T00:07:05.150Z,99400.00
2023-10-29T00:09:32.260Z,99398.00
2023-10-29T00:11:59.421Z,99400.00
2023-10-29T00:14:26.470Z,99391.00
2023-10-29T00:16:53.384Z,99389.00
2023-10-29T00:19:20.235Z,99376.00
2023-10-29T00:21:47.046Z,99362.00
2023-10-29T00:24:13.973Z,99365.00
2023-10-29T00:26:40.958Z,99352.00
2023-10-29T00:29:09.153Z,99329.00
2023-10-29T00:31:36.587Z,99342.00
2023-10-29T00:34:04.319Z,99333.00
2023-10-29T00:36:31.233Z,99344.00
2023-10-29T00:38:58.171Z,99353.00
2023-10-29T00:41:25.206Z,99350.00
2023-10-29T00:43:52.428Z,99349.00
2023-10-29T00:46:20.362Z,99359.00
2023-10-29T00:48:49.404Z,99372.00
2023-10-29T00:51:16.299Z,99364.00
2023-10-29T00:53:43.713Z,99360.00
2023-10-29T00:56:11.342Z,99345.00
2023-10-29T00:58:38.677Z,99330.00
2023-10-29T01:01:05.688Z,99316.00
2023-10-29T01:03:32.993Z,99323.00
2023-10-29T01:06:00.066Z,99325.00
2023-10-29T01:08:27.074Z,99325.00
2023-10-29T01:10:53.960Z,99322.00
2023-10-29T01:13:20.935Z,99315.00
2023-10-29T01:15:47.863Z,99312.00
2023-10-29T01:18:14.856Z,99312.00
2023-10-29T01:20:41.881Z,99296.00
2023-10-29T01:23:08.765Z,99288.00
2023-10-29T01:25:35.594Z,99276.00
2023-10-29T01:28:02.536Z,99248.00
2023-10-29T01:30:29.402Z,99237.00
2023-10-29T01:32:56.684Z,99226.00
2023-10-29T01:35:23.657Z,99237.00
2023-10-29T01:37:52.191Z,99260.00
2023-10-29T01:40:19.516Z,99269.00
2023-10-29T01:42:47.232Z,99277.00
2023-10-29T01:45:15.718Z,99268.00
2023-10-29T01:47:43.176Z,99267.00
2023-10-29T01:50:10.738Z,99246.00
2023-10-29T01:52:39.597Z,99251.00
2023-10-29T01:55:07.314Z,99249.00
2023-10-29T01:57:35.890Z,99250.00
2023-10-29T02:00:06.776Z,99266.00
2023-10-29T02:02:34.756Z,99255.00
2023-10-29T02:05:05.500Z,99250.00
2023-10-29T02:07:32.578Z,99249.00
2023-10-29T02:09:59.539Z,99244.00
2023-10-29T02:12:26.523Z,99231.00
2023-10-29T02:14:53.390Z,99217.00
2023-10-29T02:17:20.223Z,99213.00
2023-10-29T02:19:47.091Z,99212.00
2023-10-29T02:22:13.974Z,99211.00
2023-10-29T02:24:40.860Z,99207.00
2023-10-29T02:27:07.704Z,99212.00
2023-10-29T02:29:35.214Z,99222.00
2023-10-29T02:32:02.065Z,99234.00
2023-10-29T02:34:28.879Z,99230.00
2023-10-29T02:36:55.761Z,99218.00
2023-10-29T02:39:22.616Z,99220.00
2023-10-29T02:41:49.569Z,99214.00
2023-10-29T02:44:16.512Z,99213.00
2023-10-29T02:46:43.427Z,99203.00
2023-10-29T02:49:10.285Z,99197.00
2023-10-29T02:51:37.167Z,99197.00
2023-10-29T02:54:04.255Z,99190.00
2023-10-29T02:56:31.890Z,99185.00
2023-10-29T02:58:58.811Z,99168.00
2023-10-29T03:01:25.769Z,99174.00
2023-10-29T03:03:52.852Z,99174.00
2023-10-29T03:06:19.943Z,99167.00
2023-10-29T03:08:46.831Z,99165.00
2023-10-29T03:11:14.150Z,99151.00
2023-10-29T03:13:41.109Z,99151.00
2023-10-29T03:16:08.098Z,99151.00
2023-10-29T03:18:35.059Z,99151.00
2023-10-29T03:21:01.999Z,99149.00
2023-10-29T03:23:29.001Z,99144.00
2023-10-29T03:26:02.665Z,99139.00
2023-10-29T03:28:30.847Z,99135.00
2023-10-29T03:30:58.024Z,99128.00
2023-10-29T03:33:25.074Z,99127.00
2023-10-29T03:35:52.125Z,99118.00
2023-10-29T03:38:19.513Z,99116.00
2023-10-29T03:40:49.294Z,99092.00
2023-10-29T03:43:58.811Z,99092.00
2023-10-29T03:46:25.764Z,99083.00
2023-10-29T03:54:46.372Z,99075.00
2023-10-29T03:57:22.364Z,99070.00
2023-10-29T03:59:49.429Z,99061.00
2023-10-29T04:02:16.505Z,99048.00
2023-10-29T04:04:47.925Z,99040.00
2023-10-29T04:07:23.983Z,99035.00
2023-10-29T04:09:51.000Z,99031.00
2023-10-29T04:12:19.890Z,99028.00
2023-10-29T04:14:47.385Z,99015.00
2023-10-29T04:17:14.872Z,99011.00
2023-10-29T04:19:41.854Z,99008.00
2023-10-29T04:22:09.368Z,99009.00
2023-10-29T04:24:36.889Z,99002.00
2023-10-29T04:27:03.997Z,98986.00
2023-10-29T04:29:31.092Z,98989.00
2023-10-29T04:31:58.112Z,98984.00
2023-10-29T04:34:25.233Z,98973.00
2023-10-29T04:36:57.224Z,98966.00
2023-10-29T04:39:24.287Z,98950.00
2023-10-29T04:41:51.411Z,98951.00
2023-10-29T04:44:18.474Z,98938.00
2023-10-29T04:46:45.457Z,98932.00
2023-10-29T04:49:12.435Z,98937.00
2023-10-29T04:51:39.467Z,98937.00
2023-10-29T04:54:07.876Z,98934.00
2023-10-29T04:56:35.120Z,98921.00
2023-10-29T04:59:02.204Z,98912.00
2023-10-29T05:01:29.310Z,98908.00
2023-10-29T05:03:56.486Z,98906.00
2023-10-29T05:06:23.848Z,98901.00
2023-10-29T05:08:54.979Z,98895.00
2023-10-29T05:11:22.083Z,98901.00
2023-10-29T05:14:01.023Z,98900.00
2023-10-29T05:16:27.992Z,98889.00
2023-10-29T05:18:55.078Z,98874.00
2023-10-29T05:21:22.136Z,98871.00
2023-10-29T05:23:49.091Z,98878.00
2023-10-29T05:26:21.071Z,98878.00
2023-10-29T05:28:52.026Z,98879.00
2023-10-29T05:31:22.068Z,98853.00
2023-10-29T05:33:49.162Z,98870.00
2023-10-29T05:36:19.182Z,98870.00
2023-10-29T05:38:46.240Z,98865.00
2023-10-29T05:41:20.583Z,98844.00
2023-10-29T05:43:47.515Z,98839.00
2023-10-29T05:46:15.233Z,98843.00
2023-10-29T05:48:42.327Z,98839.00
2023-10-29T05:51:13.904Z,98840.00
2023-10-29T05:53:41.245Z,98834.00
2023-10-29T05:56:23.084Z,98834.00
2023-10-29T05:58:50.239Z,98826.00
2023-10-29T06:01:17.439Z,98817.00
2023-10-29T06:03:44.797Z,98816.00
2023-10-29T06:06:15.206Z,98826.00
2023-10-29T06:08:42.301Z,98826.00
2023-10-29T06:11:09.395Z,98830.00
2023-10-29T06:13:56.282Z,98835.00
2023-10-29T06:16:23.289Z,98829.00
2023-10-29T06:18:53.339Z,98825.00
2023-10-29T06:21:25.460Z,98819.00
2023-10-29T06:23:54.437Z,98814.00
2023-10-29T06:26:21.433Z,98809.00
2023-10-29T06:29:00.303Z,98807.00
2023-10-29T06:31:34.441Z,98805.00
2023-10-29T06:34:12.114Z,98800.00
2023-10-29T06:36:43.188Z,98778.00
2023-10-29T06:39:10.344Z,98770.00
2023-10-29T06:42:07.293Z,98771.00
2023-10-29T06:44:28.275Z,98787.00
2023-10-29T06:46:55.781Z,98776.00
2023-10-29T06:49:22.945Z,98775.00
2023-10-29T06:51:50.066Z,98769.00
2023-10-29T06:54:43.057Z,98778.00
2023-10-29T07:01:56.444Z,98785.00
2023-10-29T07:04:59.302Z,98785.00
2023-10-29T07:07:34.428Z,98769.00
2023-10-29T07:11:05.607Z,98767.00
2023-10-29T07:13:57.308Z,98763.00
2023-10-29T07:20:25.377Z,98752.00
2023-10-29T07:25:36.497Z,98761.00
2023-10-29T07:28:04.015Z,98752.00
2023-10-29T07:30:31.695Z,98762.00
2023-10-29T07:33:02.789Z,98755.00
2023-10-29T07:35:29.891Z,98770.00
2023-10-29T07:38:01.791Z,98774.00
2023-10-29T07:40:28.887Z,98757.00
2023-10-29T07:42:57.759Z,98770.00
2023-10-29T07:45:27.065Z,98769.00
2023-10-29T07:48:12.218Z,98781.00
2023-10-29T07:51:18.487Z,98766.00
2023-10-29T07:53:47.765Z,98765.00
2023-10-29T07:56:30.206Z,98773.00
2023-10-29T07:58:58.575Z,98756.00
2023-10-29T08:01:25.553Z,98755.00
2023-10-29T08:03:52.792Z,98761.00
2023-10-29T08:06:19.835Z,98785.00
2023-10-29T08:08:47.102Z,98782.00
2023-10-29T08:11:26.310Z,98759.00
2023-10-29T08:14:28.153Z,98773.00
2023-10-29T08:16:54.994Z,98739.00
2023-10-29T08:19:22.110Z,98756.00
2023-10-29T08:21:48.994Z,98760.00
2023-10-29T08:24:15.970Z,98752.00
2023-10-29T08:26:45.945Z,98762.00
2023-10-29T08:29:13.395Z,98766.00
2023-10-29T08:31:40.302Z,98770.00
2023-10-29T08:34:07.183Z,98768.00
2023-10-29T08:36:38.162Z,98747.00
2023-10-29T08:39:05.132Z,98736.00
2023-10-29T08:41:32.010Z,98747.00
2023-10-29T08:44:08.199Z,98771.00
2023-10-29T08:46:35.290Z,98752.00
2023-10-29T08:49:05.460Z,98768.00
2023-10-29T08:51:37.540Z,98779.00
2023-10-29T08:54:09.528Z,98783.00
2023-10-29T08:56:36.776Z,98776.00
2023-10-29T08:59:17.568Z,98791.00
2023-10-29T09:01:58.089Z,98779.00
2023-10-29T09:04:24.922Z,98765.00
2023-10-29T09:06:54.664Z,98779.00
2023-10-29T09:09:21.704Z,98779.00
2023-10-29T09:11:54.124Z,98787.00
2023-10-29T09:14:26.246Z,98776.00
2023-10-29T09:16:53.122Z,98777.00
2023-10-29T09:19:20.629Z,98804.00
2023-10-29T09:21:47.959Z,98804.00
2023-10-29T09:24:16.476Z,98804.00
2023-10-29T09:26:43.379Z,98809.00
2023-10-29T09:29:10.388Z,98808.00
2023-10-29T09:31:37.570Z,98814.00
2023-10-29T09:34:05.645Z,98820.00
2023-10-29T09:36:32.619Z,98830.00
2023-10-29T09:38:59.566Z,98831.00
2023-10-29T09:41:26.512Z,98839.00
2023-10-29T09:43:56.845Z,98822.00
2023-10-29T09:46:24.889Z,98816.00
2023-10-29T09:48:52.768Z,98814.00
2023-10-29T09:51:21.540Z,98819.00
2023-10-29T09:53:50.281Z,98824.00
2023-10-29T09:56:17.162Z,98820.00
2023-10-29T09:58:44.133Z,98816.00
2023-10-29T10:01:11.123Z,98817.00
2023-10-29T10:03:38.201Z,98812.00
2023-10-29T10:06:05.423Z,98816.00
2023-10-29T10:08:34.368Z,98826.00
2023-10-29T10:11:03.883Z,98831.00
2023-10-29T10:13:38.238Z,98836.00
2023-10-29T10:16:16.166Z,98840.00
2023-10-29T10:19:02.428Z,98846.00
2023-10-29T10:21:43.502Z,98865.00
2023-10-29T10:24:12.645Z,98838.00
2023-10-29T10:26:42.352Z,98852.00
2023-10-29T10:29:10.152Z,98853.00
2023-10-29T10:31:37.209Z,98866.00
2023-10-29T10:34:14.051Z,98858.00
2023-10-29T10:36:52.667Z,98879.00
2023-10-29T10:39:26.955Z,98881.00
2023-10-29T10:41:53.874Z,98884.00
2023-10-29T10:44:22.051Z,98888.00
2023-10-29T10:46:56.163Z,98877.00
2023-10-29T10:49:23.611Z,98901.00
2023-10-29T10:51:56.008Z,98902.00
2023-10-29T10:54:33.977Z,98923.00
2023-10-29T10:57:01.971Z,98913.00
2023-10-29T10:59:30.242Z,98928.00
2023-10-29T11:02:00.621Z,98947.00
2023-10-29T11:04:28.714Z,98944.00
2023-10-29T11:06:56.332Z,98949.00
2023-10-29T11:09:24.206Z,98953.00
2023-10-29T11:11:53.886Z,98938.00
2023-10-29T11:14:21.470Z,98961.00
2023-10-29T11:16:56.815Z,98945.00
2023-10-29T11:19:42.844Z,98958.00
2023-10-29T11:22:19.512Z,98971.00
2023-10-29T11:25:13.058Z,98960.00
2023-10-29T11:27:41.779Z,98963.00
2023-10-29T11:30:19.341Z,98979.00
2023-10-29T11:32:47.842Z,98980.00
2023-10-29T11:35:20.585Z,98990.00
2023-10-29T11:37:49.817Z,98985.00
2023-10-29T11:40:30.065Z,98969.00
2023-10-29T11:43:14.003Z,99000.00
2023-10-29T11:45:41.263Z,99001.00
2023-10-29T11:48:11.083Z,98991.00
2023-10-29T11:50:45.978Z,98988.00
2023-10-29T11:53:40.245Z,99007.00
2023-10-29T11:56:11.128Z,98995.00
2023-10-29T11:58:38.212Z,98978.00
2023-10-29T12:01:05.546Z,98994.00
2023-10-29T12:03:32.668Z,98985.00
2023-10-29T12:05:59.608Z,99032.00
2023-10-29T12:08:27.454Z,99008.00
2023-10-29T12:10:57.806Z,99029.00
2023-10-29T12:13:24.884Z,99030.00
2023-10-29T12:16:08.806Z,99040.00
2023-10-29T12:18:37.209Z,99040.00
2023-10-29T12:21:10.755Z,99021.00
2023-10-29T12:23:38.563Z,99027.00
2023-10-29T12:26:08.398Z,99035.00
2023-10-29T12:28:36.629Z,99040.00
2023-10-29T12:31:06.448Z,99065.00
2023-10-29T12:33:35.918Z,99057.00
2023-10-29T12:36:06.460Z,99036.00
2023-10-29T12:38:39.341Z,99053.00
2023-10-29T12:41:15.171Z,99024.00
2023-10-29T12:43:48.219Z,99013.00
2023-10-29T12:46:16.982Z,99032.00
2023-10-29T12:49:04.258Z,98999.00
2023-10-29T12:51:32.777Z,98989.00
2023-10-29T12:54:20.699Z,99007.00
2023-10-29T12:57:04.281Z,98996.00
2023-10-29T12:59:33.676Z,99002.00
2023-10-29T13:02:02.374Z,99012.00
2023-10-29T13:04:29.341Z,99029.00
2023-10-29T13:06:57.140Z,99044.00
2023-10-29T13:09:26.116Z,99040.00
2023-10-29T13:11:53.572Z,99042.00
2023-10-29T13:14:21.161Z,99030.00
2023-10-29T13:16:57.457Z,99036.00
2023-10-29T13:19:24.664Z,99036.00
2023-10-29T13:21:54.495Z,99040.00
2023-10-29T13:24:24.254Z,99030.00
2023-10-29T13:26:54.535Z,99036.00
2023-10-29T13:29:24.373Z,99035.00
2023-10-29T13:31:59.258Z,99029.00
2023-10-29T13:34:27.010Z,99018.00
2023-10-29T13:36:57.070Z,98996.00
2023-10-29T13:39:24.015Z,99016.00
2023-10-29T13:41:51.229Z,98998.00
2023-10-29T13:44:18.741Z,98987.00
2023-10-29T13:46:45.797Z,98985.00
2023-10-29T13:49:12.794Z,98981.00
2023-10-29T13:51:40.949Z,98976.00
2023-10-29T13:54:09.881Z,98967.00
2023-10-29T13:56:36.795Z,98953.00
2023-10-29T13:59:03.608Z,98939.00
2023-10-29T14:01:30.726Z,98948.00
2023-10-29T14:03:58.752Z,98969.00
2023-10-29T14:06:43.917Z,98968.00
2023-10-29T14:09:10.859Z,98955.00
2023-10-29T14:11:38.015Z,98957.00
2023-10-29T14:14:04.916Z,98952.00
2023-10-29T14:16:39.142Z,98943.00
2023-10-29T14:19:08.783Z,98935.00
2023-10-29T14:21:36.456Z,98950.00
2023-10-29T14:24:08.685Z,98968.00
2023-10-29T14:26:36.816Z,98968.00
2023-10-29T14:29:06.737Z,98951.00
2023-10-29T14:31:35.041Z,98960.00
2023-10-29T14:34:01.897Z,98940.00
2023-10-29T14:36:28.734Z,98949.00
2023-10-29T14:38:55.697Z,98949.00
2023-10-29T14:41:22.501Z,98958.00
2023-10-29T14:43:49.406Z,98955.00
2023-10-29T14:46:16.229Z,98970.00
2023-10-29T14:48:44.605Z,98976.00
2023-10-29T14:51:11.614Z,98968.00
2023-10-29T14:53:38.911Z,98959.00
2023-10-29T14:56:06.509Z,98950.00
2023-10-29T14:58:33.432Z,98943.00
2023-10-29T15:01:04.143Z,98938.00
2023-10-29T15:03:34.809Z,98928.00
2023-10-29T15:06:01.957Z,98940.00
2023-10-29T15:08:28.875Z,98939.00
2023-10-29T15:10:55.736Z,98922.00
2023-10-29T15:13:23.630Z,98929.00
2023-10-29T15:15:50.592Z,98922.00
2023-10-29T15:18:17.907Z,98924.00
2023-10-29T15:21:00.281Z,98926.00
2023-10-29T15:23:28.550Z,98926.00
2023-10-29T15:25:55.550Z,98925.00
2023-10-29T15:28:23.024Z,98920.00
2023-10-29T15:30:49.948Z,98925.00
2023-10-29T15:33:17.271Z,98933.00
2023-10-29T15:35:44.093Z,98930.00
2023-10-29T15:38:11.746Z,98948.00
2023-10-29T15:40:39.079Z,98939.00
2023-10-29T15:43:07.088Z,98949.00
2023-10-29T15:45:34.378Z,98938.00
2023-10-29T15:48:01.371Z,98947.00
2023-10-29T15:50:28.347Z,98944.00
2023-10-29T15:52:56.032Z,98942.00
2023-10-29T15:55:23.030Z,98938.00
2023-10-29T15:57:50.314Z,98923.00
2023-10-29T16:00:18.946Z,98917.00
2023-10-29T16:02:46.249Z,98912.00
2023-10-29T16:05:13.195Z,98926.00
2023-10-29T16:07:40.376Z,98922.00
2023-10-29T16:10:08.647Z,98928.00
2023-10-29T16:12:35.551Z,98921.00
2023-10-29T16:15:05.824Z,98923.00
2023-10-29T16:17:32.793Z,98920.00
2023-10-29T16:19:59.692Z,98907.00
2023-10-29T16:22:26.694Z,98907.00
2023-10-29T16:24:53.725Z,98911.00
2023-10-29T16:27:20.803Z,98913.00
2023-10-29T16:29:47.716Z,98920.00
2023-10-29T16:32:14.749Z,98931.00
2023-10-29T16:34:42.050Z,98932.00
2023-10-29T16:37:08.864Z,98933.00
2023-10-29T16:39:39.784Z,98936.00
2023-10-29T16:42:07.051Z,98917.00
2023-10-29T16:44:34.931Z,98923.00
2023-10-29T16:47:03.056Z,98931.00
2023-10-29T16:49:33.252Z,98921.00
2023-10-29T16:52:00.368Z,98920.00
2023-10-29T16:54:31.569Z,98916.00
2023-10-29T16:56:58.783Z,98912.00
2023-10-29T16:59:26.305Z,98912.00
2023-10-29T17:01:55.611Z,98896.00
2023-10-29T17:04:22.549Z,98883.00
2023-10-29T17:06:49.444Z,98886.00
2023-10-29T17:09:16.304Z,98888.00
2023-10-29T17:11:43.206Z,98904.00
2023-10-29T17:14:13.106Z,98898.00
2023-10-29T17:16:40.240Z,98898.00
2023-10-29T17:19:08.396Z,98900.00
2023-10-29T17:21:35.502Z,98896.00
2023-10-29T17:24:03.694Z,98879.00
2023-10-29T17:26:30.852Z,98867.00
2023-10-29T17:29:00.063Z,98877.00
2023-10-29T17:31:28.327Z,98889.00
2023-10-29T17:33:55.684Z,98895.00
2023-10-29T17:36:22.709Z,98879.00
2023-10-29T17:38:49.831Z,98872.00
2023-10-29T17:41:18.413Z,98876.00
2023-10-29T17:43:46.400Z,98864.00
2023-10-29T17:46:14.906Z,98857.00
2023-10-29T17:48:41.820Z,98852.00
2023-10-29T17:51:08.747Z,98844.00
2023-10-29T17:53:36.769Z,98843.00
2023-10-29T17:56:05.028Z,98849.00
2023-10-29T17:58:32.152Z,98851.00
2023-10-29T18:00:59.892Z,98843.00
2023-10-29T18:03:27.268Z,98853.00
2023-10-29T18:05:54.694Z,98859.00
2023-10-29T18:08:21.795Z,98859.00
2023-10-29T18:10:50.198Z,98858.00
2023-10-29T18:13:17.309Z,98853.00
2023-10-29T18:15:44.110Z,98859.00
2023-10-29T18:18:12.546Z,98857.00
2023-10-29T18:20:40.392Z,98851.00
2023-10-29T18:23:07.343Z,98840.00
2023-10-29T18:25:34.687Z,98834.00
2023-10-29T18:28:01.653Z,98837.00
2023-10-29T18:30:28.876Z,98843.00
2023-10-29T18:32:56.756Z,98847.00
2023-10-29T18:35:23.685Z,98856.00
2023-10-29T18:37:52.216Z,98869.00
2023-10-29T18:40:19.762Z,98860.00
2023-10-29T18:42:46.725Z,98877.00
2023-10-29T18:45:13.653Z,98870.00
2023-10-29T18:47:40.727Z,98883.00
2023-10-29T18:50:07.881Z,98884.00
2023-10-29T18:52:35.800Z,98884.00
2023-10-29T18:55:03.524Z,98904.00
2023-10-29T18:57:30.367Z,98900.00
2023-10-29T18:59:57.408Z,98915.00
2023-10-29T19:02:24.259Z,98916.00
2023-10-29T19:04:51.586Z,98937.00
2023-10-29T19:07:18.489Z,98949.00
2023-10-29T19:09:45.444Z,98946.00
2023-10-29T19:12:13.101Z,98927.00
2023-10-29T19:14:43.279Z,98931.00
2023-10-29T19:17:11.344Z,98928.00
2023-10-29T19:19:39.222Z,98915.00
2023-10-29T19:22:06.473Z,98923.00
2023-10-29T19:24:34.482Z,98910.00
2023-10-29T19:27:04.254Z,98912.00
2023-10-29T19:29:31.042Z,98918.00
2023-10-29T19:31:58.233Z,98915.00
2023-10-29T19:34:27.412Z,98932.00
2023-10-29T19:36:54.298Z,98937.00
2023-10-29T19:39:22.352Z,98946.00
2023-10-29T19:41:49.350Z,98931.00
2023-10-29T19:44:16.177Z,98924.00
2023-10-29T19:46:43.195Z,98925.00
2023-10-29T19:49:10.077Z,98927.00
2023-10-29T19:51:37.282Z,98935.00
2023-10-29T19:54:04.345Z,98941.00
2023-10-29T19:56:31.102Z,98944.00
2023-10-29T19:59:01.832Z,98950.00
2023-10-29T20:01:28.808Z,98927.00
2023-10-29T20:03:59.051Z,98944.00
2023-10-29T20:06:26.267Z,98949.00
2023-10-29T20:08:53.689Z,98945.00
2023-10-29T20:11:20.691Z,98953.00
2023-10-29T20:13:49.480Z,98938.00
2023-10-29T20:16:16.347Z,98937.00
2023-10-29T20:18:43.355Z,98951.00
2023-10-29T20:21:18.055Z,98946.00
2023-10-29T20:23:46.632Z,98942.00
2023-10-29T20:26:18.951Z,98963.00
2023-10-29T20:28:47.756Z,98962.00
2023-10-29T20:31:15.192Z,98968.00
2023-10-29T20:33:44.349Z,98950.00
2023-10-29T20:36:14.400Z,98940.00
2023-10-29T20:38:41.267Z,98936.00
2023-10-29T20:41:11.043Z,98939.00
2023-10-29T20:43:38.789Z,98940.00
2023-10-29T20:46:05.887Z,98955.00
2023-10-29T20:48:36.221Z,98944.00
2023-10-29T20:51:03.924Z,98939.00
2023-10-29T20:53:31.034Z,98952.00
2023-10-29T20:55:57.898Z,98956.00
2023-10-29T20:58:24.790Z,98960.00
2023-10-29T21:00:52.626Z,98960.00
2023-10-29T21:03:20.094Z,98955.00
2023-10-29T21:05:47.379Z,98954.00
2023-10-29T21:08:14.921Z,98963.00
2023-10-29T21:10:42.054Z,98965.00
2023-10-29T21:13:09.004Z,98961.00
2023-10-29T21:15:40.162Z,98968.00
2023-10-29T21:18:07.435Z,98971.00
2023-10-29T21:20:34.670Z,98968.00
2023-10-29T21:23:01.782Z,98968.00
2023-10-29T21:25:28.705Z,98964.00
2023-10-29T21:27:55.775Z,98965.00
2023-10-29T21:30:22.711Z,98953.00
2023-10-29T21:32:49.561Z,98951.00
2023-10-29T21:35:16.540Z,98948.00
2023-10-29T21:37:43.606Z,98949.00
2023-10-29T21:40:10.948Z,98957.00
2023-10-29T21:42:38.299Z,98958.00
2023-10-29T21:45:06.454Z,98954.00
2023-10-29T21:47:33.705Z,98963.00
2023-10-29T21:50:00.906Z,98962.00
2023-10-29T21:52:27.857Z,98957.00
2023-10-29T21:54:54.765Z,98962.00
2023-10-29T21:57:22.597Z,98964.00
2023-10-29T21:59:49.771Z,98968.00
2023-10-29T22:02:16.759Z,98968.00
2023-10-29T22:04:43.796Z,98958.00
2023-10-29T22:07:10.705Z,98968.00
2023-10-29T22:09:37.882Z,98955.00
2023-10-29T22:12:05.123Z,98968.00
2023-10-29T22:14:31.992Z,98955.00
2023-10-29T22:16:59.191Z,98968.00
2023-10-29T22:19:26.343Z,98963.00
2023-10-29T22:21:53.295Z,98966.00
2023-10-29T22:24:20.346Z,98968.00
2023-10-29T22:26:47.184Z,98969.00
2023-10-29T22:29:14.017Z,98982.00
2023-10-29T22:31:40.920Z,98981.00
2023-10-29T22:34:07.844Z,98981.00
2023-10-29T22:36:35.026Z,98994.00
2023-10-29T22:39:01.883Z,98993.00
2023-10-29T22:41:29.102Z,98996.00
2023-10-29T22:43:56.006Z,98992.00
2023-10-29T22:46:23.654Z,99008.00
2023-10-29T22:48:52.166Z,99012.00
2023-10-29T22:51:19.744Z,99014.00
2023-10-29T22:53:47.076Z,99015.00
2023-10-29T22:56:15.038Z,99019.00
2023-10-29T22:58:41.919Z,99020.00
2023-10-29T23:01:12.092Z,99019.00
2023-10-29T23:03:39.334Z,99021.00
2023-10-29T23:06:06.494Z,99025.00
2023-10-29T23:08:34.412Z,99018.00
2023-10-29T23:11:01.325Z,99021.00
2023-10-29T23:13:28.294Z,99035.00
2023-10-29T23:15:56.686Z,99025.00
2023-10-29T23:18:25.434Z,99034.00
2023-10-29T23:20:53.668Z,99033.00
2023-10-29T23:23:20.762Z,99033.00
2023-10-29T23:25:47.816Z,99041.00
2023-10-29T23:28:30.408Z,99034.00
2023-10-29T23:31:01.659Z,99033.00
2023-10-29T23:33:30.875Z,99037.00
2023-10-29T23:35:58.032Z,99049.00
2023-10-29T23:38:24.907Z,99043.00
2023-10-29T23:40:51.933Z,99037.00
2023-10-29T23:43:19.044Z,99063.00
2023-10-29T23:45:45.897Z,99056.00
2023-10-29T23:48:13.242Z,99067.00
2023-10-29T23:50:40.188Z,99059.00
2023-10-29T23:53:07.585Z,99059.00
2023-10-29T23:55:37.042Z,99061.00
2023-10-29T23:58:03.953Z,99061.00
